Terminal Aerodrome Forecast
Issued by NWS

Home | Current Version | Previous Version | Text Only | Print | Product List | Glossary On
Versions: 1 2 3 4 5 6 7 8 9 10 11 12 13 14 15 16 17
081
FTUS43 KPAH 201720
TAFCGI
TAF
KCGI 201720Z 2018/2118 19008KT P6SM VCSH SCT040 BKN090
     FM210300 23007KT P6SM SCT040 BKN100
     FM210900 30009KT P6SM SCT020 BKN040
     FM211400 29008KT P6SM SCT040=

USA.gov is the U.S. government's official web portal to all federal, state and local government web resources and services.